Time;durP1;ratioP1;P1;durP2;ratioP2;P2;SDS_P1;SDS_P2;PMS_P1;PMS_P2;Temp;Humidity;BMP_temperature;BMP_pressure;BME280_temperature;BME280_humidity;BME280_pressure;Samples;Min_cycle;Max_cycle;Signal;HPM_P1;HPM_P2
2022/09/23 00:01:49;;;;;;;1.13;1.05;;;;;;;;;;5049241;28;20037;-81
2022/09/23 00:04:14;;;;;;;1.02;0.77;;;;;;;;;;5049233;28;20059;-84
2022/09/23 00:06:40;;;;;;;1.70;1.48;;;;;;;;;;5049372;28;20033;-81
2022/09/23 00:09:05;;;;;;;1.77;1.30;;;;;;;;;;5053321;28;20472;-82
2022/09/23 00:11:31;;;;;;;0.77;0.77;;;;;;;;;;5052793;28;20362;-84
2022/09/23 00:13:58;;;;;;;0.40;0.40;;;;;;;;;;5051272;28;20038;-83
2022/09/23 00:16:27;;;;;;;0.30;0.30;;;;;;;;;;5047569;28;20032;-80
2022/09/23 00:18:52;;;;;;;1.10;0.93;;;;;;;;;;5049488;28;20063;-86
2022/09/23 00:21:20;;;;;;;0.47;0.47;;;;;;;;;;5051874;28;20437;-83
2022/09/23 00:23:46;;;;;;;1.10;1.10;;;;;;;;;;5051553;28;20067;-81
2022/09/23 00:26:15;;;;;;;1.42;0.88;;;;;;;;;;5054237;28;20028;-83
2022/09/23 00:28:41;;;;;;;1.17;1.08;;;;;;;;;;5052590;28;20420;-82
2022/09/23 00:31:11;;;;;;;1.63;1.23;;;;;;;;;;5052067;28;20044;-80
2022/09/23 00:33:36;;;;;;;1.35;1.25;;;;;;;;;;5052143;28;20028;-84
2022/09/23 00:36:04;;;;;;;0.20;0.20;;;;;;;;;;5053762;28;20508;-81
2022/09/23 00:38:30;;;;;;;0.50;0.50;;;;;;;;;;5053986;28;20029;-82
2022/09/23 00:40:57;;;;;;;0.50;0.50;;;;;;;;;;5053751;28;20082;-82
2022/09/23 00:43:41;;;;;;;0.98;0.88;;;;;;;;;;5051417;28;20102;-83
2022/09/23 00:46:15;;;;;;;0.70;0.70;;;;;;;;;;5052111;28;20105;-81
2022/09/23 00:48:42;;;;;;;0.47;0.43;;;;;;;;;;5053016;28;20491;-81
2022/09/23 00:51:11;;;;;;;0.57;0.57;;;;;;;;;;5053905;28;20033;-82
2022/09/23 00:53:38;;;;;;;0.50;0.50;;;;;;;;;;5050795;28;20414;-83
2022/09/23 00:56:08;;;;;;;0.82;0.82;;;;;;;;;;5050871;28;20045;-80
2022/09/23 00:58:36;;;;;;;0.38;0.38;;;;;;;;;;5052738;28;20497;-82
2022/09/23 01:01:02;;;;;;;0.38;0.38;;;;;;;;;;5055656;28;20029;-81
2022/09/23 01:03:28;;;;;;;0.82;0.77;;;;;;;;;;5053150;28;20390;-81
2022/09/23 01:05:55;;;;;;;0.73;0.73;;;;;;;;;;5049731;28;20020;-81
2022/09/23 01:08:22;;;;;;;0.95;0.95;;;;;;;;;;5053250;28;20025;-81
2022/09/23 01:10:53;;;;;;;0.52;0.52;;;;;;;;;;5055124;28;20032;-81
2022/09/23 01:13:50;;;;;;;0.68;0.68;;;;;;;;;;5052208;28;20043;-80
2022/09/23 01:16:27;;;;;;;0.82;0.82;;;;;;;;;;5054002;28;20366;-82
2022/09/23 01:19:04;;;;;;;0.82;0.82;;;;;;;;;;5053831;28;20027;-83
2022/09/23 01:21:47;;;;;;;4.57;1.00;;;;;;;;;;5053616;28;20025;-79
2022/09/23 01:24:44;;;;;;;0.68;0.30;;;;;;;;;;5051799;28;20402;-83
2022/09/23 01:27:25;;;;;;;0.95;0.52;;;;;;;;;;5051402;28;20377;-82
2022/09/23 01:30:19;;;;;;;0.93;0.57;;;;;;;;;;5049412;28;20025;-83
2022/09/23 01:33:09;;;;;;;0.55;0.50;;;;;;;;;;5052719;28;20663;-83
2022/09/23 01:35:41;;;;;;;;;;;;;;;;;;5052378;28;20029;-81
2022/09/23 01:38:42;;;;;;;0.10;0.10;;;;;;;;;;5051955;28;19917;-79
2022/09/23 01:41:20;;;;;;;0.63;0.63;;;;;;;;;;5039373;28;20072;-83
2022/09/23 01:43:59;;;;;;;0.20;0.20;;;;;;;;;;5052684;28;20033;-81
2022/09/23 01:46:40;;;;;;;1.23;1.17;;;;;;;;;;5048178;28;20111;-83
2022/09/23 01:49:15;;;;;;;1.42;0.77;;;;;;;;;;5052183;28;20029;-84
2022/09/23 01:51:46;;;;;;;0.80;0.80;;;;;;;;;;5051793;28;20021;-84
2022/09/23 01:54:22;;;;;;;0.57;0.57;;;;;;;;;;5051282;28;20408;-81
2022/09/23 01:56:55;;;;;;;0.45;0.40;;;;;;;;;;5053636;28;20159;-84
2022/09/23 01:59:27;;;;;;;0.68;0.68;;;;;;;;;;5051064;28;20533;-81
2022/09/23 02:01:59;;;;;;;0.45;0.45;;;;;;;;;;5052420;28;20029;-82
2022/09/23 02:04:31;;;;;;;0.40;0.40;;;;;;;;;;5048909;28;20045;-83
2022/09/23 02:07:02;;;;;;;0.70;0.70;;;;;;;;;;5050444;28;20025;-83
2022/09/23 02:09:36;;;;;;;1.13;0.52;;;;;;;;;;5050361;28;20094;-83
2022/09/23 02:12:08;;;;;;;0.63;0.63;;;;;;;;;;5050204;28;20067;-83
2022/09/23 02:14:51;;;;;;;0.40;0.40;;;;;;;;;;5048557;28;20028;-84
2022/09/23 02:17:25;;;;;;;1.30;0.65;;;;;;;;;;5050834;28;20239;-84
2022/09/23 02:19:56;;;;;;;0.25;0.25;;;;;;;;;;5052732;28;20051;-85
2022/09/23 02:22:26;;;;;;;0.82;0.82;;;;;;;;;;5053249;28;20465;-85
2022/09/23 02:24:55;;;;;;;0.65;0.65;;;;;;;;;;5050919;28;20029;-85
2022/09/23 02:27:41;;;;;;;0.70;0.65;;;;;;;;;;5052257;28;20033;-84
2022/09/23 02:30:10;;;;;;;0.52;0.40;;;;;;;;;;5046114;28;20390;-83
2022/09/23 02:32:55;;;;;;;0.47;0.38;;;;;;;;;;5050614;28;20029;-82
2022/09/23 02:35:49;;;;;;;0.55;0.55;;;;;;;;;;5050995;28;20025;-85
2022/09/23 02:38:30;;;;;;;0.65;0.65;;;;;;;;;;5048206;28;20059;-83
2022/09/23 02:41:14;;;;;;;0.60;0.60;;;;;;;;;;5048276;28;20397;-83
2022/09/23 02:44:07;;;;;;;0.57;0.57;;;;;;;;;;5050049;28;20017;-84
2022/09/23 02:46:34;;;;;;;0.22;0.22;;;;;;;;;;5047733;28;20024;-84
2022/09/23 02:49:25;;;;;;;0.88;0.77;;;;;;;;;;5052189;28;20459;-83
2022/09/23 02:51:50;;;;;;;0.50;0.50;;;;;;;;;;5047886;28;20440;-83
2022/09/23 02:54:18;;;;;;;0.50;0.50;;;;;;;;;;5052188;28;20104;-84
2022/09/23 02:56:44;;;;;;;0.50;0.50;;;;;;;;;;5048709;28;20131;-84
2022/09/23 02:59:11;;;;;;;0.40;0.40;;;;;;;;;;5047988;28;20533;-82
2022/09/23 03:01:44;;;;;;;1.05;0.47;;;;;;;;;;5047970;28;20381;-83
2022/09/23 03:04:20;;;;;;;0.35;0.32;;;;;;;;;;5050545;28;20540;-83
2022/09/23 03:07:20;;;;;;;0.32;0.30;;;;;;;;;;5050523;28;20384;-83
2022/09/23 03:10:11;;;;;;;1.08;0.60;;;;;;;;;;5051116;28;20068;-84
2022/09/23 03:13:01;;;;;;;0.65;0.65;;;;;;;;;;5052099;28;20116;-83
2022/09/23 03:15:37;;;;;;;0.35;0.17;;;;;;;;;;5049705;28;20115;-83
2022/09/23 03:18:20;;;;;;;0.88;0.65;;;;;;;;;;5046401;28;20116;-83
2022/09/23 03:20:52;;;;;;;2.38;0.25;;;;;;;;;;5050340;28;20037;-84
2022/09/23 03:23:24;;;;;;;0.73;0.73;;;;;;;;;;5050456;28;20098;-83
2022/09/23 03:25:53;;;;;;;0.15;0.15;;;;;;;;;;5051053;28;20068;-82
2022/09/23 03:28:21;;;;;;;0.80;0.70;;;;;;;;;;5050091;28;20123;-87
2022/09/23 03:30:51;;;;;;;1.40;1.08;;;;;;;;;;5050774;28;20499;-86
2022/09/23 03:33:18;;;;;;;0.80;0.47;;;;;;;;;;5048708;28;20113;-85
2022/09/23 03:38:39;;;;;;;0.20;0.20;;;;;;;;;;5050934;28;20047;-84
2022/09/23 03:41:08;;;;;;;0.52;0.47;;;;;;;;;;5050854;28;20021;-83
2022/09/23 03:43:34;;;;;;;0.25;0.25;;;;;;;;;;5051286;28;20480;-83
2022/09/23 03:46:00;;;;;;;0.15;0.15;;;;;;;;;;5051658;28;20021;-85
2022/09/23 03:48:26;;;;;;;0.25;0.25;;;;;;;;;;5050966;28;20029;-84
2022/09/23 03:50:51;;;;;;;2.17;0.80;;;;;;;;;;5051352;28;20798;-83
2022/09/23 03:53:19;;;;;;;0.47;0.47;;;;;;;;;;5048517;28;20033;-82
2022/09/23 03:55:45;;;;;;;0.63;0.63;;;;;;;;;;5050775;28;20393;-83
2022/09/23 03:58:11;;;;;;;0.50;0.50;;;;;;;;;;5055894;28;20025;-83
2022/09/23 04:00:37;;;;;;;2.15;0.52;;;;;;;;;;5052977;28;20032;-83
2022/09/23 04:03:03;;;;;;;0.50;0.50;;;;;;;;;;5052799;28;20037;-85
2022/09/23 04:05:29;;;;;;;1.33;1.23;;;;;;;;;;5057898;28;20032;-82
2022/09/23 04:07:55;;;;;;;1.75;1.65;;;;;;;;;;5053777;28;20029;-83
2022/09/23 04:10:21;;;;;;;0.50;0.50;;;;;;;;;;5054744;28;20025;-82
2022/09/23 04:12:46;;;;;;;0.20;0.20;;;;;;;;;;5052555;28;20036;-82
2022/09/23 04:15:12;;;;;;;0.88;0.55;;;;;;;;;;5053365;28;20051;-83
2022/09/23 04:17:38;;;;;;;0.50;0.50;;;;;;;;;;5055672;28;20044;-82
2022/09/23 04:20:03;;;;;;;0.75;0.75;;;;;;;;;;5053278;28;20021;-83
2022/09/23 04:22:29;;;;;;;0.30;0.30;;;;;;;;;;5052855;28;20148;-83
2022/09/23 04:24:55;;;;;;;0.15;0.15;;;;;;;;;;5050888;28;20382;-82
2022/09/23 04:27:20;;;;;;;0.82;0.82;;;;;;;;;;5054511;28;20028;-84
2022/09/23 04:29:46;;;;;;;0.30;0.30;;;;;;;;;;5054499;28;20123;-84
2022/09/23 04:32:11;;;;;;;0.52;0.52;;;;;;;;;;5052879;28;20029;-84
2022/09/23 04:34:36;;;;;;;3.03;1.00;;;;;;;;;;5059752;28;20029;-84
2022/09/23 04:37:02;;;;;;;1.13;0.73;;;;;;;;;;5055798;28;20111;-82
2022/09/23 04:39:27;;;;;;;1.02;0.75;;;;;;;;;;5054491;28;20021;-84
2022/09/23 04:41:53;;;;;;;0.65;0.65;;;;;;;;;;5055106;28;20450;-85
2022/09/23 04:44:19;;;;;;;1.25;1.13;;;;;;;;;;5053371;28;20107;-81
2022/09/23 04:46:46;;;;;;;0.25;0.25;;;;;;;;;;5051566;28;20064;-82
2022/09/23 04:49:13;;;;;;;0.60;0.60;;;;;;;;;;5052565;28;20086;-79
2022/09/23 04:51:42;;;;;;;11.07;5.00;;;;;;;;;;5052436;28;20028;-82
2022/09/23 04:54:09;;;;;;;16.33;7.63;;;;;;;;;;5053320;28;20032;-82
2022/09/23 04:56:34;;;;;;;17.73;7.53;;;;;;;;;;5052109;28;20229;-82
2022/09/23 04:59:03;;;;;;;1.20;1.10;;;;;;;;;;5050598;28;20063;-83
2022/09/23 05:01:30;;;;;;;1.55;1.40;;;;;;;;;;5048714;28;20029;-83
2022/09/23 05:04:01;;;;;;;4.10;1.38;;;;;;;;;;5052771;28;20036;-79
2022/09/23 05:06:28;;;;;;;1.00;1.00;;;;;;;;;;5052709;28;20032;-81
2022/09/23 05:08:55;;;;;;;1.30;1.20;;;;;;;;;;5053599;28;20028;-83
2022/09/23 05:11:22;;;;;;;2.53;1.40;;;;;;;;;;5053677;28;20465;-82
2022/09/23 05:13:49;;;;;;;0.93;0.75;;;;;;;;;;5052928;28;20095;-82
2022/09/23 05:16:15;;;;;;;2.72;2.10;;;;;;;;;;5052957;28;20033;-78
2022/09/23 05:18:42;;;;;;;5.07;2.65;;;;;;;;;;5052058;28;20032;-81
2022/09/23 05:21:12;;;;;;;3.28;2.25;;;;;;;;;;5052930;28;20028;-82
2022/09/23 05:23:39;;;;;;;2.05;1.08;;;;;;;;;;5051799;28;20408;-81
2022/09/23 05:26:10;;;;;;;2.70;1.27;;;;;;;;;;5053379;28;20098;-80
2022/09/23 05:28:36;;;;;;;1.33;0.95;;;;;;;;;;5051053;28;20130;-81
2022/09/23 05:31:11;;;;;;;2.65;1.33;;;;;;;;;;5051742;28;20025;-83
2022/09/23 05:33:38;;;;;;;0.75;0.75;;;;;;;;;;5051375;28;20063;-81
2022/09/23 05:36:03;;;;;;;2.05;1.90;;;;;;;;;;5051852;28;20036;-80
2022/09/23 05:38:30;;;;;;;0.70;0.60;;;;;;;;;;5050454;28;20040;-83
2022/09/23 05:41:04;;;;;;;1.73;1.02;;;;;;;;;;5052919;28;20032;-81
2022/09/23 05:43:30;;;;;;;1.58;0.85;;;;;;;;;;5051252;28;20378;-79
2022/09/23 05:46:07;;;;;;;1.95;1.63;;;;;;;;;;5047448;28;20035;-82
2022/09/23 05:48:34;;;;;;;1.92;0.90;;;;;;;;;;5050647;28;20053;-82
2022/09/23 05:51:01;;;;;;;2.60;2.40;;;;;;;;;;5049596;28;20035;-82
2022/09/23 05:53:28;;;;;;;1.35;1.25;;;;;;;;;;5053250;28;20029;-81
2022/09/23 05:55:55;;;;;;;1.25;1.15;;;;;;;;;;5054071;28;20498;-80
2022/09/23 05:58:22;;;;;;;2.10;2.00;;;;;;;;;;5055981;28;20025;-84
2022/09/23 06:00:48;;;;;;;1.88;1.70;;;;;;;;;;5050147;28;20036;-80
2022/09/23 06:03:16;;;;;;;1.67;1.25;;;;;;;;;;5052792;28;20067;-80
2022/09/23 06:05:41;;;;;;;2.00;1.50;;;;;;;;;;5051785;28;20037;-81
2022/09/23 06:08:08;;;;;;;1.92;1.67;;;;;;;;;;5055776;28;20055;-81
2022/09/23 06:10:38;;;;;;;1.15;1.05;;;;;;;;;;5054360;28;20056;-80
2022/09/23 06:13:04;;;;;;;1.23;1.15;;;;;;;;;;5056220;28;20496;-83
2022/09/23 06:15:29;;;;;;;2.22;1.42;;;;;;;;;;5054090;28;20048;-82
2022/09/23 06:17:55;;;;;;;1.52;1.42;;;;;;;;;;5053343;28;20103;-82
2022/09/23 06:20:20;;;;;;;2.00;1.80;;;;;;;;;;5050606;28;20029;-81
2022/09/23 06:22:45;;;;;;;2.22;1.42;;;;;;;;;;5052806;28;20025;-81
2022/09/23 06:25:11;;;;;;;0.85;0.68;;;;;;;;;;5050656;28;20051;-82
2022/09/23 06:27:37;;;;;;;0.95;0.95;;;;;;;;;;5051612;28;20028;-80
2022/09/23 06:30:05;;;;;;;0.65;0.57;;;;;;;;;;5045044;28;20094;-80
2022/09/23 06:32:31;;;;;;;1.42;0.90;;;;;;;;;;5048799;28;20021;-84
2022/09/23 06:34:56;;;;;;;2.53;1.92;;;;;;;;;;5051967;28;20025;-83
2022/09/23 06:37:23;;;;;;;12.27;1.40;;;;;;;;;;5052264;28;20028;-80
2022/09/23 06:39:48;;;;;;;2.22;0.98;;;;;;;;;;5050518;28;20041;-84
2022/09/23 06:42:15;;;;;;;1.75;1.30;;;;;;;;;;5050511;28;20029;-81
2022/09/23 06:44:41;;;;;;;1.25;0.93;;;;;;;;;;5053300;28;20063;-81
2022/09/23 06:47:06;;;;;;;0.88;0.88;;;;;;;;;;5050136;28;20029;-83
2022/09/23 06:49:32;;;;;;;1.45;1.20;;;;;;;;;;5053050;28;20021;-81
2022/09/23 06:51:58;;;;;;;2.75;2.10;;;;;;;;;;5052748;28;20029;-82
2022/09/23 06:54:27;;;;;;;0.57;0.57;;;;;;;;;;5052423;28;20036;-84
2022/09/23 06:56:53;;;;;;;0.70;0.70;;;;;;;;;;5051681;28;20029;-82
2022/09/23 06:59:18;;;;;;;1.25;1.15;;;;;;;;;;5050930;28;20038;-82
2022/09/23 07:01:46;;;;;;;1.33;1.25;;;;;;;;;;5049733;28;20571;-83
2022/09/23 07:04:11;;;;;;;0.70;0.52;;;;;;;;;;5050487;28;20171;-83
2022/09/23 07:06:37;;;;;;;0.65;0.63;;;;;;;;;;5050226;28;20112;-84
2022/09/23 07:09:05;;;;;;;1.15;1.05;;;;;;;;;;5050152;28;20035;-83
2022/09/23 07:11:30;;;;;;;3.00;1.60;;;;;;;;;;5051677;28;20054;-82
2022/09/23 07:13:55;;;;;;;0.60;0.47;;;;;;;;;;5052284;28;20476;-82
2022/09/23 07:16:21;;;;;;;3.00;0.98;;;;;;;;;;5052247;28;20025;-84
2022/09/23 07:18:46;;;;;;;0.73;0.73;;;;;;;;;;5051929;28;20033;-83
2022/09/23 07:21:17;;;;;;;0.82;0.80;;;;;;;;;;5050654;28;20033;-83
2022/09/23 07:23:44;;;;;;;1.90;1.42;;;;;;;;;;5050478;28;20053;-82
2022/09/23 07:26:10;;;;;;;2.15;1.65;;;;;;;;;;5052983;28;20020;-81
2022/09/23 07:28:37;;;;;;;1.58;0.95;;;;;;;;;;5051696;28;20120;-83
2022/09/23 07:31:09;;;;;;;0.25;0.25;;;;;;;;;;5055812;28;20445;-78
2022/09/23 07:33:36;;;;;;;1.08;1.05;;;;;;;;;;5055236;28;20044;-81
2022/09/23 07:36:11;;;;;;;2.25;1.55;;;;;;;;;;5058541;28;20082;-83
2022/09/23 07:38:37;;;;;;;0.82;0.73;;;;;;;;;;5055110;28;20500;-80
2022/09/23 07:41:08;;;;;;;1.02;0.95;;;;;;;;;;5052484;28;20056;-80
2022/09/23 07:43:34;;;;;;;3.67;1.67;;;;;;;;;;5053190;28;20021;-80
2022/09/23 07:46:02;;;;;;;2.25;1.10;;;;;;;;;;5050397;28;20036;-80
2022/09/23 07:48:29;;;;;;;1.38;1.13;;;;;;;;;;5048356;28;20017;-79
2022/09/23 07:50:55;;;;;;;1.33;0.95;;;;;;;;;;5059487;28;20062;-80
2022/09/23 07:53:21;;;;;;;1.00;0.90;;;;;;;;;;5049528;28;20033;-81
2022/09/23 07:55:55;;;;;;;0.57;0.52;;;;;;;;;;5051360;28;20033;-84
2022/09/23 07:58:21;;;;;;;1.17;1.15;;;;;;;;;;5049944;28;20017;-84
2022/09/23 08:00:49;;;;;;;0.20;0.20;;;;;;;;;;5050784;28;20492;-83
2022/09/23 08:03:15;;;;;;;1.50;0.77;;;;;;;;;;5049059;28;20033;-84
2022/09/23 08:05:40;;;;;;;0.40;0.40;;;;;;;;;;5051418;28;20040;-83
2022/09/23 08:08:06;;;;;;;1.17;1.05;;;;;;;;;;5050787;28;20029;-83
2022/09/23 08:10:32;;;;;;;0.95;0.82;;;;;;;;;;5051047;28;20025;-86
2022/09/23 08:12:58;;;;;;;0.88;0.80;;;;;;;;;;5049287;28;20037;-82
2022/09/23 08:15:25;;;;;;;0.55;0.55;;;;;;;;;;5048061;28;20108;-85
2022/09/23 08:17:51;;;;;;;1.40;1.15;;;;;;;;;;5050832;28;21409;-83
2022/09/23 08:20:43;;;;;;;0.70;0.63;;;;;;;;;;5048685;28;20029;-83
2022/09/23 08:23:02;;;;;;;1.38;0.95;;;;;;;;;;5049990;28;20087;-83
2022/09/23 08:25:28;;;;;;;1.70;1.23;;;;;;;;;;5048188;28;20021;-84
2022/09/23 08:27:53;;;;;;;1.83;1.73;;;;;;;;;;5047086;28;20033;-84
2022/09/23 08:30:18;;;;;;;1.20;0.98;;;;;;;;;;5046918;28;20040;-84
2022/09/23 08:32:44;;;;;;;1.33;0.98;;;;;;;;;;5050087;28;20025;-86
2022/09/23 08:35:09;;;;;;;1.20;0.98;;;;;;;;;;5048821;28;20024;-82
2022/09/23 08:37:35;;;;;;;1.42;1.00;;;;;;;;;;5049274;28;20033;-84
2022/09/23 08:40:00;;;;;;;0.88;0.82;;;;;;;;;;5051158;28;20424;-86
2022/09/23 08:42:32;;;;;;;1.25;1.00;;;;;;;;;;5052503;28;20037;-88
2022/09/23 08:45:02;;;;;;;0.52;0.52;;;;;;;;;;5054452;28;20051;-86
2022/09/23 08:47:50;;;;;;;0.77;0.77;;;;;;;;;;5050132;28;20087;-82
2022/09/23 08:50:17;;;;;;;1.08;0.93;;;;;;;;;;5051202;28;20032;-81
2022/09/23 08:52:43;;;;;;;0.28;0.22;;;;;;;;;;5050474;28;20060;-84
2022/09/23 08:55:13;;;;;;;0.73;0.68;;;;;;;;;;5053129;28;20065;-83
2022/09/23 08:57:47;;;;;;;0.82;0.82;;;;;;;;;;5052766;28;20039;-84
2022/09/23 09:00:19;;;;;;;0.20;0.20;;;;;;;;;;5051271;28;20024;-83
2022/09/23 09:02:45;;;;;;;0.50;0.40;;;;;;;;;;5052617;28;20044;-83
2022/09/23 09:05:14;;;;;;;0.55;0.50;;;;;;;;;;5054585;28;20530;-84
2022/09/23 09:07:42;;;;;;;1.50;1.40;;;;;;;;;;5049068;28;20071;-85
2022/09/23 09:10:24;;;;;;;0.30;0.28;;;;;;;;;;5052902;28;20028;-84
2022/09/23 09:12:52;;;;;;;0.98;0.77;;;;;;;;;;5052010;28;20122;-85
2022/09/23 09:15:19;;;;;;;0.60;0.60;;;;;;;;;;5065595;28;20029;-83
2022/09/23 09:18:08;;;;;;;0.40;0.40;;;;;;;;;;5051882;28;20346;-84
2022/09/23 09:20:40;;;;;;;0.40;0.40;;;;;;;;;;5054729;28;20384;-83
2022/09/23 09:23:11;;;;;;;2.45;1.77;;;;;;;;;;5052014;28;20497;-85
2022/09/23 09:25:45;;;;;;;0.82;0.68;;;;;;;;;;5052204;28;20024;-85
2022/09/23 09:28:22;;;;;;;0.30;0.30;;;;;;;;;;5051629;28;20057;-83
2022/09/23 09:30:52;;;;;;;0.30;0.30;;;;;;;;;;5053484;28;20488;-83
2022/09/23 09:33:26;;;;;;;0.85;0.85;;;;;;;;;;5052089;28;20125;-84
2022/09/23 09:36:30;;;;;;;1.85;1.17;;;;;;;;;;5052085;28;20020;-83
2022/09/23 09:38:58;;;;;;;0.50;0.50;;;;;;;;;;5053695;28;20492;-82
2022/09/23 09:41:27;;;;;;;0.93;0.90;;;;;;;;;;5054839;28;20917;-85
2022/09/23 09:43:58;;;;;;;0.47;0.37;;;;;;;;;;5055763;28;20033;-84
2022/09/23 09:46:49;;;;;;;0.65;0.45;;;;;;;;;;5052917;28;20037;-83
2022/09/23 09:49:39;;;;;;;0.63;0.45;;;;;;;;;;5053971;28;20029;-83
2022/09/23 09:52:23;;;;;;;0.65;0.57;;;;;;;;;;5050308;28;20040;-84
2022/09/23 09:54:49;;;;;;;0.20;0.20;;;;;;;;;;5052898;28;20065;-83
2022/09/23 09:57:30;;;;;;;0.38;0.38;;;;;;;;;;5049202;28;20858;-85
2022/09/23 09:59:57;;;;;;;0.60;0.52;;;;;;;;;;5049290;28;20029;-85
2022/09/23 10:02:29;;;;;;;1.08;0.57;;;;;;;;;;5052588;28;20035;-85
2022/09/23 10:05:00;;;;;;;0.55;0.55;;;;;;;;;;5053047;28;20136;-84
2022/09/23 10:07:31;;;;;;;0.30;0.30;;;;;;;;;;5044143;28;20051;-86
2022/09/23 10:09:57;;;;;;;0.50;0.30;;;;;;;;;;5052456;28;20058;-84
2022/09/23 10:12:24;;;;;;;0.68;0.45;;;;;;;;;;5053547;28;20032;-84
2022/09/23 10:14:55;;;;;;;0.73;0.57;;;;;;;;;;5052233;28;20081;-85
2022/09/23 10:17:35;;;;;;;0.30;0.30;;;;;;;;;;5051884;28;20067;-83
2022/09/23 10:20:07;;;;;;;0.30;0.25;;;;;;;;;;5052393;28;20025;-85
2022/09/23 10:22:37;;;;;;;0.55;0.28;;;;;;;;;;5065562;28;20024;-85
2022/09/23 10:25:09;;;;;;;0.75;0.63;;;;;;;;;;5051367;28;20029;-83
2022/09/23 10:27:35;;;;;;;0.40;0.40;;;;;;;;;;5050598;28;20461;-84
2022/09/23 10:30:24;;;;;;;0.77;0.73;;;;;;;;;;5051263;28;20421;-85
2022/09/23 10:32:53;;;;;;;1.02;0.60;;;;;;;;;;5049463;28;20501;-85
2022/09/23 10:35:32;;;;;;;0.40;0.40;;;;;;;;;;5047844;28;20401;-85
2022/09/23 10:38:00;;;;;;;0.70;0.70;;;;;;;;;;5049594;28;20402;-83
2022/09/23 10:47:05;;;;;;;0.10;0.10;;;;;;;;;;5051949;28;20043;-84
2022/09/23 10:49:11;;;;;;;0.63;0.60;;;;;;;;;;5037752;28;20068;-84
2022/09/23 10:51:54;;;;;;;0.47;0.47;;;;;;;;;;5053974;28;20487;-85
2022/09/23 10:54:48;;;;;;;0.32;0.32;;;;;;;;;;5048987;28;20025;-85
2022/09/23 10:57:44;;;;;;;0.30;0.30;;;;;;;;;;5049442;28;20029;-85
2022/09/23 11:00:36;;;;;;;0.90;0.82;;;;;;;;;;5051411;28;20456;-84
2022/09/23 11:03:39;;;;;;;0.77;0.45;;;;;;;;;;5050222;28;20044;-85
2022/09/23 11:06:52;;;;;;;0.20;0.20;;;;;;;;;;5048346;28;20474;-85
2022/09/23 11:09:43;;;;;;;0.35;0.35;;;;;;;;;;4979430;28;20038;-84
2022/09/23 11:12:50;;;;;;;0.45;0.35;;;;;;;;;;5049839;28;20028;-85
2022/09/23 11:15:34;;;;;;;0.32;0.22;;;;;;;;;;5017023;28;20556;-84
2022/09/23 11:18:09;;;;;;;0.90;0.45;;;;;;;;;;5050311;28;20163;-84
2022/09/23 11:20:37;;;;;;;0.47;0.47;;;;;;;;;;5050406;28;20491;-84
2022/09/23 11:23:19;;;;;;;0.47;0.47;;;;;;;;;;5048725;28;20017;-84
2022/09/23 11:25:45;;;;;;;0.32;0.32;;;;;;;;;;5049052;28;20039;-85
2022/09/23 11:28:30;;;;;;;6.68;1.02;;;;;;;;;;5051916;28;20470;-84
2022/09/23 11:31:20;;;;;;;0.68;0.68;;;;;;;;;;5048382;28;20028;-85
2022/09/23 11:34:02;;;;;;;0.40;0.40;;;;;;;;;;5048772;28;20045;-84
2022/09/23 11:36:34;;;;;;;0.40;0.40;;;;;;;;;;5048126;28;20025;-83
2022/09/23 11:39:16;;;;;;;0.57;0.50;;;;;;;;;;5047123;28;20466;-85
2022/09/23 11:41:43;;;;;;;0.93;0.57;;;;;;;;;;5051461;28;20108;-84
2022/09/23 11:44:40;;;;;;;0.47;0.43;;;;;;;;;;5050530;28;20020;-84
2022/09/23 11:47:09;;;;;;;0.70;0.45;;;;;;;;;;5050795;28;20079;-83
2022/09/23 11:50:06;;;;;;;0.63;0.55;;;;;;;;;;5052195;28;20353;-84
2022/09/23 11:52:42;;;;;;;0.50;0.50;;;;;;;;;;5053975;28;20040;-84
2022/09/23 11:55:18;;;;;;;0.50;0.50;;;;;;;;;;5050252;28;20024;-85
2022/09/23 11:57:51;;;;;;;0.20;0.20;;;;;;;;;;5051078;28;20049;-85
2022/09/23 12:00:22;;;;;;;0.73;0.25;;;;;;;;;;5046717;28;20108;-84
2022/09/23 12:03:10;;;;;;;0.20;0.20;;;;;;;;;;5050323;28;20485;-83
2022/09/23 12:05:46;;;;;;;0.20;0.20;;;;;;;;;;5051918;28;20031;-84
2022/09/23 12:08:33;;;;;;;0.20;0.20;;;;;;;;;;5049028;28;20036;-85
2022/09/23 12:10:58;;;;;;;0.47;0.38;;;;;;;;;;5048819;28;20094;-83
2022/09/23 12:13:48;;;;;;;0.17;0.17;;;;;;;;;;5051127;28;20028;-85
2022/09/23 12:16:32;;;;;;;;;;;;;;;;;;5051379;28;20037;-82
2022/09/23 12:19:03;;;;;;;0.30;0.30;;;;;;;;;;5054977;28;19921;-82
2022/09/23 12:21:59;;;;;;;0.57;0.40;;;;;;;;;;5053852;28;20377;-82
2022/09/23 12:24:33;;;;;;;0.85;0.35;;;;;;;;;;5053757;28;20445;-83
2022/09/23 12:27:04;;;;;;;0.17;0.15;;;;;;;;;;5053524;28;20029;-83
2022/09/23 12:29:31;;;;;;;0.10;0.10;;;;;;;;;;5054344;28;20087;-84
2022/09/23 12:31:58;;;;;;;0.47;0.30;;;;;;;;;;5060589;28;20036;-84
2022/09/23 12:34:36;;;;;;;0.90;0.52;;;;;;;;;;5056783;28;20020;-83
2022/09/23 12:37:03;;;;;;;0.37;0.20;;;;;;;;;;5054296;28;20028;-84
2022/09/23 12:39:37;;;;;;;0.20;0.20;;;;;;;;;;5053968;28;20033;-83
2022/09/23 12:42:15;;;;;;;0.17;0.17;;;;;;;;;;5052307;28;20580;-83
2022/09/23 12:44:43;;;;;;;2.85;0.70;;;;;;;;;;5053619;28;20024;-82
2022/09/23 12:47:19;;;;;;;1.20;1.00;;;;;;;;;;5054451;28;20025;-83
2022/09/23 12:49:46;;;;;;;0.28;0.28;;;;;;;;;;5054586;28;20488;-83
2022/09/23 12:52:14;;;;;;;0.57;0.57;;;;;;;;;;5053689;28;20111;-84
2022/09/23 12:54:45;;;;;;;0.70;0.52;;;;;;;;;;5049575;28;20512;-84
2022/09/23 12:57:31;;;;;;;0.35;0.32;;;;;;;;;;5052337;28;20033;-83
2022/09/23 13:00:10;;;;;;;0.38;0.38;;;;;;;;;;5039282;28;20037;-84
2022/09/23 13:02:46;;;;;;;1.40;0.40;;;;;;;;;;5054988;28;20408;-83
2022/09/23 13:08:13;;;;;;;0.63;0.47;;;;;;;;;;5053915;28;20048;-84
2022/09/23 13:10:48;;;;;;;0.32;0.32;;;;;;;;;;5050037;28;20100;-84
2022/09/23 13:13:37;;;;;;;0.32;0.30;;;;;;;;;;5052401;28;20051;-83
2022/09/23 13:16:24;;;;;;;0.35;0.35;;;;;;;;;;5052066;28;20032;-84
2022/09/23 13:18:52;;;;;;;0.28;0.20;;;;;;;;;;5054311;28;20021;-85
2022/09/23 13:21:44;;;;;;;1.63;0.98;;;;;;;;;;5052185;28;20519;-84
2022/09/23 13:24:33;;;;;;;0.65;0.30;;;;;;;;;;5055055;28;20021;-84
2022/09/23 13:26:59;;;;;;;0.43;0.43;;;;;;;;;;5041759;28;20852;-83
2022/09/23 13:29:33;;;;;;;0.88;0.60;;;;;;;;;;5054419;28;20143;-85
2022/09/23 13:32:00;;;;;;;0.50;0.40;;;;;;;;;;5053220;28;20028;-85
2022/09/23 13:34:32;;;;;;;0.32;0.32;;;;;;;;;;5051584;28;20033;-83
2022/09/23 13:37:09;;;;;;;0.35;0.30;;;;;;;;;;5053287;28;20036;-84
2022/09/23 13:39:35;;;;;;;0.40;0.40;;;;;;;;;;5051311;28;20553;-84
2022/09/23 13:42:03;;;;;;;0.65;0.63;;;;;;;;;;5054178;28;20024;-84
2022/09/23 13:44:29;;;;;;;0.35;0.35;;;;;;;;;;5056201;28;20067;-84
2022/09/23 13:46:58;;;;;;;0.50;0.47;;;;;;;;;;5049665;28;20057;-83
2022/09/23 13:49:27;;;;;;;0.57;0.50;;;;;;;;;;5053076;28;20434;-84
2022/09/23 13:51:54;;;;;;;0.85;0.70;;;;;;;;;;5049810;28;20040;-84
2022/09/23 13:54:32;;;;;;;0.60;0.60;;;;;;;;;;5052565;28;20473;-84
2022/09/23 13:56:58;;;;;;;0.60;0.45;;;;;;;;;;5050875;28;20496;-84
2022/09/23 13:59:27;;;;;;;0.52;0.50;;;;;;;;;;5051460;28;20412;-83
2022/09/23 14:02:04;;;;;;;0.77;0.60;;;;;;;;;;5050753;28;20037;-84
2022/09/23 14:04:29;;;;;;;1.70;0.80;;;;;;;;;;5064308;28;20072;-84
2022/09/23 14:06:55;;;;;;;0.40;0.40;;;;;;;;;;5053520;28;20021;-83
2022/09/23 14:09:26;;;;;;;0.32;0.32;;;;;;;;;;5052465;28;20048;-83
2022/09/23 14:11:54;;;;;;;0.70;0.70;;;;;;;;;;5048673;28;20036;-84
2022/09/23 14:14:21;;;;;;;1.73;0.32;;;;;;;;;;5052017;28;20029;-84
2022/09/23 14:16:49;;;;;;;0.50;0.50;;;;;;;;;;5046602;28;20056;-84
2022/09/23 14:19:17;;;;;;;0.90;0.63;;;;;;;;;;5051935;28;20025;-84
2022/09/23 14:21:46;;;;;;;0.25;0.22;;;;;;;;;;5050810;28;20043;-83
2022/09/23 14:24:35;;;;;;;0.68;0.60;;;;;;;;;;5051246;28;20024;-85
2022/09/23 14:27:06;;;;;;;;;;;;;;;;;;5052246;28;20021;-84
2022/09/23 14:29:37;;;;;;;0.85;0.73;;;;;;;;;;5048794;28;19920;-85
2022/09/23 14:32:06;;;;;;;0.45;0.43;;;;;;;;;;5054123;28;20119;-84
2022/09/23 14:35:04;;;;;;;0.70;0.70;;;;;;;;;;5051401;28;20431;-85
2022/09/23 14:40:33;;;;;;;0.65;0.40;;;;;;;;;;5052024;28;20062;-84
2022/09/23 14:43:15;;;;;;;0.50;0.50;;;;;;;;;;5051233;28;20114;-84
2022/09/23 14:45:46;;;;;;;0.30;0.30;;;;;;;;;;5066576;28;20420;-84
2022/09/23 14:48:37;;;;;;;0.60;0.60;;;;;;;;;;5050739;28;20036;-84
2022/09/23 14:51:06;;;;;;;0.40;0.30;;;;;;;;;;5047968;28;20045;-84
2022/09/23 14:53:41;;;;;;;1.10;0.70;;;;;;;;;;5050831;28;20473;-83
2022/09/23 14:56:06;;;;;;;0.82;0.43;;;;;;;;;;5049783;28;20025;-83
2022/09/23 14:58:50;;;;;;;0.60;0.43;;;;;;;;;;5050383;28;20043;-84
2022/09/23 15:01:31;;;;;;;0.38;0.38;;;;;;;;;;5051439;28;20033;-84
2022/09/23 15:03:58;;;;;;;0.45;0.40;;;;;;;;;;5051590;28;20063;-84
2022/09/23 15:06:24;;;;;;;0.65;0.43;;;;;;;;;;5050504;28;20041;-84
2022/09/23 15:08:54;;;;;;;0.52;0.20;;;;;;;;;;5049716;28;20107;-84
2022/09/23 15:11:24;;;;;;;0.60;0.60;;;;;;;;;;5051577;28;20381;-82
2022/09/23 15:13:51;;;;;;;0.63;0.60;;;;;;;;;;5051493;28;20044;-81
2022/09/23 15:16:25;;;;;;;0.50;0.50;;;;;;;;;;5054395;28;20060;-84
2022/09/23 15:18:54;;;;;;;0.47;0.40;;;;;;;;;;5047487;28;20477;-82
2022/09/23 15:21:22;;;;;;;1.08;0.60;;;;;;;;;;5049268;28;20078;-84
2022/09/23 15:23:53;;;;;;;0.13;0.13;;;;;;;;;;5051035;28;20025;-85
2022/09/23 15:26:23;;;;;;;0.65;0.30;;;;;;;;;;5050900;28;20464;-83
2022/09/23 15:28:52;;;;;;;0.52;0.52;;;;;;;;;;5051089;28;20115;-84